sensor_id;sensor_type;location;lat;lon;timestamp;temperature;humidity
26621;DHT22;14253;44.840;10.444;2022-08-11T00:00:08;22.70;99.90
26621;DHT22;14253;44.840;10.444;2022-08-11T00:02:45;22.60;99.90
26621;DHT22;14253;44.840;10.444;2022-08-11T00:05:14;22.60;99.90
26621;DHT22;14253;44.840;10.444;2022-08-11T00:07:46;22.60;99.90
26621;DHT22;14253;44.840;10.444;2022-08-11T00:10:19;22.60;99.90
26621;DHT22;14253;44.840;10.444;2022-08-11T00:13:01;22.60;99.90
26621;DHT22;14253;44.840;10.444;2022-08-11T00:15:38;22.60;99.90
26621;DHT22;14253;44.840;10.444;2022-08-11T00:18:06;22.70;99.90
26621;DHT22;14253;44.840;10.444;2022-08-11T00:20:34;22.70;99.90
26621;DHT22;14253;44.840;10.444;2022-08-11T00:23:21;22.70;99.90
26621;DHT22;14253;44.840;10.444;2022-08-11T00:25:50;22.70;99.90
26621;DHT22;14253;44.840;10.444;2022-08-11T00:28:26;22.80;99.90
26621;DHT22;14253;44.840;10.444;2022-08-11T00:30:54;22.70;99.90
26621;DHT22;14253;44.840;10.444;2022-08-11T00:33:22;22.60;99.90
26621;DHT22;14253;44.840;10.444;2022-08-11T00:35:50;22.60;99.90
26621;DHT22;14253;44.840;10.444;2022-08-11T00:38:24;22.60;99.90
26621;DHT22;14253;44.840;10.444;2022-08-11T00:41:12;22.50;99.90
26621;DHT22;14253;44.840;10.444;2022-08-11T00:43:50;22.40;99.90
26621;DHT22;14253;44.840;10.444;2022-08-11T00:49:38;22.30;99.90
26621;DHT22;14253;44.840;10.444;2022-08-11T00:52:28;22.30;99.90
26621;DHT22;14253;44.840;10.444;2022-08-11T01:12:55;22.20;99.90
26621;DHT22;14253;44.840;10.444;2022-08-11T01:18:54;22.10;99.90
26621;DHT22;14253;44.840;10.444;2022-08-11T01:38:20;21.90;99.90
26621;DHT22;14253;44.840;10.444;2022-08-11T01:41:04;21.80;99.90
26621;DHT22;14253;44.840;10.444;2022-08-11T01:47:01;21.70;99.90
26621;DHT22;14253;44.840;10.444;2022-08-11T01:49:42;21.60;99.90
26621;DHT22;14253;44.840;10.444;2022-08-11T01:52:33;21.60;99.90
26621;DHT22;14253;44.840;10.444;2022-08-11T01:55:33;21.70;99.90
26621;DHT22;14253;44.840;10.444;2022-08-11T02:01:27;21.60;99.90
26621;DHT22;14253;44.840;10.444;2022-08-11T02:04:14;21.50;99.90
26621;DHT22;14253;44.840;10.444;2022-08-11T02:07:14;21.50;99.90
26621;DHT22;14253;44.840;10.444;2022-08-11T02:12:45;21.60;99.90
26621;DHT22;14253;44.840;10.444;2022-08-11T02:15:19;21.70;99.90
26621;DHT22;14253;44.840;10.444;2022-08-11T02:18:47;21.70;99.90
26621;DHT22;14253;44.840;10.444;2022-08-11T02:21:29;21.80;99.90
26621;DHT22;14253;44.840;10.444;2022-08-11T02:24:24;21.80;99.90
26621;DHT22;14253;44.840;10.444;2022-08-11T02:27:17;21.80;99.90
26621;DHT22;14253;44.840;10.444;2022-08-11T02:29:58;21.70;99.90
26621;DHT22;14253;44.840;10.444;2022-08-11T02:32:40;21.70;99.90
26621;DHT22;14253;44.840;10.444;2022-08-11T02:39:10;21.50;99.90
26621;DHT22;14253;44.840;10.444;2022-08-11T02:44:44;21.40;99.90
26621;DHT22;14253;44.840;10.444;2022-08-11T02:50:20;21.30;99.90
26621;DHT22;14253;44.840;10.444;2022-08-11T02:56:18;21.40;99.90
26621;DHT22;14253;44.840;10.444;2022-08-11T02:59:09;21.40;99.90
26621;DHT22;14253;44.840;10.444;2022-08-11T03:04:44;21.30;99.90
26621;DHT22;14253;44.840;10.444;2022-08-11T03:07:18;21.30;99.90
26621;DHT22;14253;44.840;10.444;2022-08-11T03:09:53;21.20;99.90
26621;DHT22;14253;44.840;10.444;2022-08-11T03:27:13;21.30;99.90
26621;DHT22;14253;44.840;10.444;2022-08-11T03:36:04;21.40;99.90
26621;DHT22;14253;44.840;10.444;2022-08-11T03:41:36;21.30;99.90
26621;DHT22;14253;44.840;10.444;2022-08-11T04:09:11;21.20;99.90
26621;DHT22;14253;44.840;10.444;2022-08-11T04:20:36;21.10;99.90
26621;DHT22;14253;44.840;10.444;2022-08-11T04:23:24;21.10;99.90
26621;DHT22;14253;44.840;10.444;2022-08-11T04:26:12;21.20;99.90
26621;DHT22;14253;44.840;10.444;2022-08-11T04:29:33;21.30;99.90
26621;DHT22;14253;44.840;10.444;2022-08-11T04:32:28;21.30;99.90
26621;DHT22;14253;44.840;10.444;2022-08-11T04:36:01;21.20;99.90
26621;DHT22;14253;44.840;10.444;2022-08-11T04:49:30;21.20;99.90
26621;DHT22;14253;44.840;10.444;2022-08-11T04:58:20;21.00;99.90
26621;DHT22;14253;44.840;10.444;2022-08-11T05:10:21;21.00;99.90
26621;DHT22;14253;44.840;10.444;2022-08-11T05:13:02;21.20;99.90
26621;DHT22;14253;44.840;10.444;2022-08-11T05:15:57;21.20;99.90
26621;DHT22;14253;44.840;10.444;2022-08-11T05:18:51;21.20;99.90
26621;DHT22;14253;44.840;10.444;2022-08-11T05:21:44;21.30;99.90
26621;DHT22;14253;44.840;10.444;2022-08-11T05:24:43;21.30;99.90
26621;DHT22;14253;44.840;10.444;2022-08-11T05:28:01;21.40;99.90
26621;DHT22;14253;44.840;10.444;2022-08-11T05:30:45;21.50;99.90
26621;DHT22;14253;44.840;10.444;2022-08-11T05:33:36;21.50;99.90
26621;DHT22;14253;44.840;10.444;2022-08-11T05:36:44;21.70;99.90
26621;DHT22;14253;44.840;10.444;2022-08-11T05:39:24;21.70;99.90
26621;DHT22;14253;44.840;10.444;2022-08-11T05:42:10;21.80;99.90
26621;DHT22;14253;44.840;10.444;2022-08-11T05:45:08;21.80;99.90
26621;DHT22;14253;44.840;10.444;2022-08-11T05:48:09;21.90;99.90
26621;DHT22;14253;44.840;10.444;2022-08-11T05:51:09;22.10;99.90
26621;DHT22;14253;44.840;10.444;2022-08-11T05:54:09;22.20;99.90
26621;DHT22;14253;44.840;10.444;2022-08-11T05:57:02;22.30;99.90
26621;DHT22;14253;44.840;10.444;2022-08-11T05:59:28;22.40;99.90
26621;DHT22;14253;44.840;10.444;2022-08-11T06:02:04;22.50;99.90
26621;DHT22;14253;44.840;10.444;2022-08-11T06:04:31;22.60;99.90
26621;DHT22;14253;44.840;10.444;2022-08-11T06:07:00;22.70;99.90
26621;DHT22;14253;44.840;10.444;2022-08-11T06:09:32;22.80;99.90
26621;DHT22;14253;44.840;10.444;2022-08-11T06:11:59;23.00;99.90
26621;DHT22;14253;44.840;10.444;2022-08-11T06:14:26;23.10;99.90
26621;DHT22;14253;44.840;10.444;2022-08-11T06:16:57;23.10;99.90
26621;DHT22;14253;44.840;10.444;2022-08-11T06:19:32;23.10;99.90
26621;DHT22;14253;44.840;10.444;2022-08-11T06:22:00;23.20;99.90
26621;DHT22;14253;44.840;10.444;2022-08-11T06:24:27;23.20;99.90
26621;DHT22;14253;44.840;10.444;2022-08-11T06:26:54;23.30;99.90
26621;DHT22;14253;44.840;10.444;2022-08-11T06:29:22;23.30;99.90
26621;DHT22;14253;44.840;10.444;2022-08-11T06:31:58;23.20;99.90
26621;DHT22;14253;44.840;10.444;2022-08-11T06:43:19;23.30;99.90
26621;DHT22;14253;44.840;10.444;2022-08-11T06:46:00;23.50;99.90
26621;DHT22;14253;44.840;10.444;2022-08-11T06:48:31;23.70;99.90
26621;DHT22;14253;44.840;10.444;2022-08-11T06:51:03;23.80;99.90
26621;DHT22;14253;44.840;10.444;2022-08-11T06:53:44;23.90;99.90
26621;DHT22;14253;44.840;10.444;2022-08-11T06:56:12;24.10;99.90
26621;DHT22;14253;44.840;10.444;2022-08-11T06:58:58;24.40;99.90
26621;DHT22;14253;44.840;10.444;2022-08-11T07:04:25;25.30;99.90
26621;DHT22;14253;44.840;10.444;2022-08-11T07:13:02;25.40;99.90
26621;DHT22;14253;44.840;10.444;2022-08-11T07:15:47;25.20;99.90
26621;DHT22;14253;44.840;10.444;2022-08-11T07:18:21;25.20;99.90
26621;DHT22;14253;44.840;10.444;2022-08-11T07:21:14;25.50;99.90
26621;DHT22;14253;44.840;10.444;2022-08-11T07:24:02;25.40;99.90
26621;DHT22;14253;44.840;10.444;2022-08-11T07:26:50;25.40;99.90
26621;DHT22;14253;44.840;10.444;2022-08-11T07:29:37;25.40;99.90
26621;DHT22;14253;44.840;10.444;2022-08-11T07:32:13;25.30;99.90
26621;DHT22;14253;44.840;10.444;2022-08-11T07:34:47;25.40;99.90
26621;DHT22;14253;44.840;10.444;2022-08-11T07:37:16;25.30;99.90
26621;DHT22;14253;44.840;10.444;2022-08-11T07:39:46;25.30;99.90
26621;DHT22;14253;44.840;10.444;2022-08-11T07:42:14;25.70;99.90
26621;DHT22;14253;44.840;10.444;2022-08-11T07:44:43;25.90;99.90
26621;DHT22;14253;44.840;10.444;2022-08-11T07:47:29;25.90;99.90
26621;DHT22;14253;44.840;10.444;2022-08-11T07:50:14;26.60;99.90
26621;DHT22;14253;44.840;10.444;2022-08-11T07:53:00;27.10;99.90
26621;DHT22;14253;44.840;10.444;2022-08-11T07:55:27;27.60;99.90
26621;DHT22;14253;44.840;10.444;2022-08-11T07:57:57;27.80;99.90
26621;DHT22;14253;44.840;10.444;2022-08-11T08:03:32;28.50;99.90
26621;DHT22;14253;44.840;10.444;2022-08-11T08:06:18;28.90;99.90
26621;DHT22;14253;44.840;10.444;2022-08-11T08:09:04;29.50;99.90
26621;DHT22;14253;44.840;10.444;2022-08-11T08:11:51;29.70;99.90
26621;DHT22;14253;44.840;10.444;2022-08-11T08:14:37;30.10;99.90
26621;DHT22;14253;44.840;10.444;2022-08-11T08:17:21;30.00;99.90
26621;DHT22;14253;44.840;10.444;2022-08-11T08:20:12;29.80;99.90
26621;DHT22;14253;44.840;10.444;2022-08-11T08:22:39;30.20;99.90
26621;DHT22;14253;44.840;10.444;2022-08-11T08:25:06;30.50;99.90
26621;DHT22;14253;44.840;10.444;2022-08-11T08:27:34;30.80;99.90
26621;DHT22;14253;44.840;10.444;2022-08-11T08:30:03;30.80;99.90
26621;DHT22;14253;44.840;10.444;2022-08-11T08:32:49;30.80;99.90
26621;DHT22;14253;44.840;10.444;2022-08-11T08:35:16;31.00;99.90
26621;DHT22;14253;44.840;10.444;2022-08-11T08:37:42;31.10;99.90
26621;DHT22;14253;44.840;10.444;2022-08-11T08:40:09;30.90;99.90
26621;DHT22;14253;44.840;10.444;2022-08-11T08:42:46;30.90;99.90
26621;DHT22;14253;44.840;10.444;2022-08-11T08:45:13;30.90;99.90
26621;DHT22;14253;44.840;10.444;2022-08-11T08:48:13;30.90;99.90
26621;DHT22;14253;44.840;10.444;2022-08-11T08:50:47;31.10;99.90
26621;DHT22;14253;44.840;10.444;2022-08-11T08:53:38;31.30;99.90
26621;DHT22;14253;44.840;10.444;2022-08-11T08:56:07;31.50;99.90
26621;DHT22;14253;44.840;10.444;2022-08-11T08:58:36;31.50;99.90
26621;DHT22;14253;44.840;10.444;2022-08-11T09:01:03;31.70;99.90
26621;DHT22;14253;44.840;10.444;2022-08-11T09:03:30;31.70;99.90
26621;DHT22;14253;44.840;10.444;2022-08-11T09:05:57;31.80;99.90
26621;DHT22;14253;44.840;10.444;2022-08-11T09:08:23;31.90;99.90
26621;DHT22;14253;44.840;10.444;2022-08-11T09:10:51;31.90;99.90
26621;DHT22;14253;44.840;10.444;2022-08-11T09:13:39;31.90;99.90
26621;DHT22;14253;44.840;10.444;2022-08-11T09:16:09;31.90;99.90
26621;DHT22;14253;44.840;10.444;2022-08-11T09:18:37;32.00;99.90
26621;DHT22;14253;44.840;10.444;2022-08-11T09:21:03;32.10;99.90
26621;DHT22;14253;44.840;10.444;2022-08-11T09:23:30;32.00;99.90
26621;DHT22;14253;44.840;10.444;2022-08-11T09:26:15;32.00;99.90
26621;DHT22;14253;44.840;10.444;2022-08-11T09:29:00;32.10;99.90
26621;DHT22;14253;44.840;10.444;2022-08-11T09:31:32;32.00;99.90
26621;DHT22;14253;44.840;10.444;2022-08-11T09:33:58;32.10;99.90
26621;DHT22;14253;44.840;10.444;2022-08-11T09:36:26;32.30;99.90
26621;DHT22;14253;44.840;10.444;2022-08-11T09:39:11;32.20;99.90
26621;DHT22;14253;44.840;10.444;2022-08-11T09:41:56;32.40;99.90
26621;DHT22;14253;44.840;10.444;2022-08-11T09:44:23;32.20;99.90
26621;DHT22;14253;44.840;10.444;2022-08-11T09:47:08;32.10;99.90
26621;DHT22;14253;44.840;10.444;2022-08-11T09:49:43;32.10;99.90
26621;DHT22;14253;44.840;10.444;2022-08-11T09:52:10;32.30;99.90
26621;DHT22;14253;44.840;10.444;2022-08-11T09:54:42;32.30;99.90
26621;DHT22;14253;44.840;10.444;2022-08-11T09:57:08;32.40;99.90
26621;DHT22;14253;44.840;10.444;2022-08-11T09:59:53;32.40;99.90
26621;DHT22;14253;44.840;10.444;2022-08-11T10:02:26;32.60;99.90
26621;DHT22;14253;44.840;10.444;2022-08-11T10:04:56;32.80;99.90
26621;DHT22;14253;44.840;10.444;2022-08-11T10:07:49;33.00;99.90
26621;DHT22;14253;44.840;10.444;2022-08-11T10:10:18;33.00;99.90
26621;DHT22;14253;44.840;10.444;2022-08-11T10:13:00;32.80;99.90
26621;DHT22;14253;44.840;10.444;2022-08-11T10:15:30;32.60;99.90
26621;DHT22;14253;44.840;10.444;2022-08-11T10:18:09;32.70;99.90
26621;DHT22;14253;44.840;10.444;2022-08-11T10:21:02;32.50;99.90
26621;DHT22;14253;44.840;10.444;2022-08-11T10:23:32;32.50;99.90
26621;DHT22;14253;44.840;10.444;2022-08-11T10:26:19;32.70;99.90
26621;DHT22;14253;44.840;10.444;2022-08-11T10:29:05;33.00;99.90
26621;DHT22;14253;44.840;10.444;2022-08-11T10:31:55;33.00;99.90
26621;DHT22;14253;44.840;10.444;2022-08-11T10:34:43;33.10;99.90
26621;DHT22;14253;44.840;10.444;2022-08-11T10:37:10;33.20;99.90
26621;DHT22;14253;44.840;10.444;2022-08-11T10:39:38;33.50;99.90
26621;DHT22;14253;44.840;10.444;2022-08-11T10:42:05;33.60;99.90
26621;DHT22;14253;44.840;10.444;2022-08-11T10:44:52;33.60;99.90
26621;DHT22;14253;44.840;10.444;2022-08-11T10:47:19;33.70;99.90
26621;DHT22;14253;44.840;10.444;2022-08-11T10:50:09;33.70;99.90
26621;DHT22;14253;44.840;10.444;2022-08-11T10:52:56;34.00;99.90
26621;DHT22;14253;44.840;10.444;2022-08-11T10:55:44;33.80;99.90
26621;DHT22;14253;44.840;10.444;2022-08-11T10:58:29;33.60;99.90
26621;DHT22;14253;44.840;10.444;2022-08-11T11:01:21;33.40;99.90
26621;DHT22;14253;44.840;10.444;2022-08-11T11:03:51;33.30;99.90
26621;DHT22;14253;44.840;10.444;2022-08-11T11:06:28;33.00;99.90
26621;DHT22;14253;44.840;10.444;2022-08-11T11:09:03;33.20;99.90
26621;DHT22;14253;44.840;10.444;2022-08-11T11:11:34;33.40;99.90
26621;DHT22;14253;44.840;10.444;2022-08-11T11:14:25;33.80;99.90
26621;DHT22;14253;44.840;10.444;2022-08-11T11:17:12;33.70;99.90
26621;DHT22;14253;44.840;10.444;2022-08-11T11:19:39;33.70;99.90
26621;DHT22;14253;44.840;10.444;2022-08-11T11:22:07;33.70;99.90
26621;DHT22;14253;44.840;10.444;2022-08-11T11:30:40;33.90;99.90
26621;DHT22;14253;44.840;10.444;2022-08-11T11:33:20;33.70;99.90
26621;DHT22;14253;44.840;10.444;2022-08-11T11:38:36;33.40;99.90
26621;DHT22;14253;44.840;10.444;2022-08-11T11:41:02;33.70;99.90
26621;DHT22;14253;44.840;10.444;2022-08-11T11:43:47;33.80;99.90
26621;DHT22;14253;44.840;10.444;2022-08-11T11:46:13;34.30;99.90
26621;DHT22;14253;44.840;10.444;2022-08-11T11:48:41;34.30;99.90
26621;DHT22;14253;44.840;10.444;2022-08-11T11:51:08;34.40;99.90
26621;DHT22;14253;44.840;10.444;2022-08-11T11:53:41;34.60;99.90
26621;DHT22;14253;44.840;10.444;2022-08-11T11:56:10;34.80;99.90
26621;DHT22;14253;44.840;10.444;2022-08-11T11:58:38;34.90;99.90
26621;DHT22;14253;44.840;10.444;2022-08-11T12:01:24;34.80;99.90
26621;DHT22;14253;44.840;10.444;2022-08-11T12:03:52;34.90;99.90
26621;DHT22;14253;44.840;10.444;2022-08-11T12:06:21;34.80;99.90
26621;DHT22;14253;44.840;10.444;2022-08-11T12:08:49;34.10;99.90
26621;DHT22;14253;44.840;10.444;2022-08-11T12:11:18;33.70;99.90
26621;DHT22;14253;44.840;10.444;2022-08-11T12:14:05;33.60;99.90
26621;DHT22;14253;44.840;10.444;2022-08-11T12:16:34;33.30;99.90
26621;DHT22;14253;44.840;10.444;2022-08-11T12:19:03;33.40;99.90
26621;DHT22;14253;44.840;10.444;2022-08-11T12:21:30;33.70;99.90
26621;DHT22;14253;44.840;10.444;2022-08-11T12:24:00;33.90;99.90
26621;DHT22;14253;44.840;10.444;2022-08-11T12:26:44;34.20;99.90
26621;DHT22;14253;44.840;10.444;2022-08-11T12:29:15;34.50;99.90
26621;DHT22;14253;44.840;10.444;2022-08-11T12:31:42;34.60;99.90
26621;DHT22;14253;44.840;10.444;2022-08-11T12:34:14;34.70;99.90
26621;DHT22;14253;44.840;10.444;2022-08-11T12:36:48;34.60;99.90
26621;DHT22;14253;44.840;10.444;2022-08-11T12:39:19;34.80;99.90
26621;DHT22;14253;44.840;10.444;2022-08-11T12:42:11;34.90;99.90
26621;DHT22;14253;44.840;10.444;2022-08-11T12:44:57;34.80;99.90
26621;DHT22;14253;44.840;10.444;2022-08-11T12:47:50;34.80;99.90
26621;DHT22;14253;44.840;10.444;2022-08-11T12:50:35;35.00;99.90
26621;DHT22;14253;44.840;10.444;2022-08-11T12:53:25;35.00;99.90
26621;DHT22;14253;44.840;10.444;2022-08-11T12:55:56;35.00;99.90
26621;DHT22;14253;44.840;10.444;2022-08-11T12:58:44;34.90;99.90
26621;DHT22;14253;44.840;10.444;2022-08-11T13:01:11;34.80;99.90
26621;DHT22;14253;44.840;10.444;2022-08-11T13:03:56;34.90;99.90
26621;DHT22;14253;44.840;10.444;2022-08-11T13:06:41;34.90;99.90
26621;DHT22;14253;44.840;10.444;2022-08-11T13:09:08;34.70;99.90
26621;DHT22;14253;44.840;10.444;2022-08-11T13:11:38;34.60;99.90
26621;DHT22;14253;44.840;10.444;2022-08-11T13:14:25;34.60;99.90
26621;DHT22;14253;44.840;10.444;2022-08-11T13:16:52;34.60;99.90
26621;DHT22;14253;44.840;10.444;2022-08-11T13:19:37;34.60;99.90
26621;DHT22;14253;44.840;10.444;2022-08-11T13:22:03;34.70;99.90
26621;DHT22;14253;44.840;10.444;2022-08-11T13:24:31;34.50;99.90
26621;DHT22;14253;44.840;10.444;2022-08-11T13:27:01;34.40;99.90
26621;DHT22;14253;44.840;10.444;2022-08-11T13:29:28;34.70;99.90
26621;DHT22;14253;44.840;10.444;2022-08-11T13:31:58;34.80;99.90
26621;DHT22;14253;44.840;10.444;2022-08-11T13:34:26;34.80;99.90
26621;DHT22;14253;44.840;10.444;2022-08-11T13:36:58;34.60;99.90
26621;DHT22;14253;44.840;10.444;2022-08-11T13:39:29;34.80;99.90
26621;DHT22;14253;44.840;10.444;2022-08-11T13:41:57;34.90;99.90
26621;DHT22;14253;44.840;10.444;2022-08-11T13:44:26;35.00;99.90
26621;DHT22;14253;44.840;10.444;2022-08-11T13:46:56;35.10;99.90
26621;DHT22;14253;44.840;10.444;2022-08-11T13:49:23;34.70;99.90
26621;DHT22;14253;44.840;10.444;2022-08-11T13:51:49;34.60;99.90
26621;DHT22;14253;44.840;10.444;2022-08-11T13:54:20;34.70;99.90
26621;DHT22;14253;44.840;10.444;2022-08-11T13:56:49;34.80;99.90
26621;DHT22;14253;44.840;10.444;2022-08-11T13:59:18;35.00;99.90
26621;DHT22;14253;44.840;10.444;2022-08-11T14:01:59;35.10;99.90
26621;DHT22;14253;44.840;10.444;2022-08-11T14:07:22;34.70;99.90
26621;DHT22;14253;44.840;10.444;2022-08-11T14:09:53;34.40;99.90
26621;DHT22;14253;44.840;10.444;2022-08-11T14:12:23;34.30;99.90
26621;DHT22;14253;44.840;10.444;2022-08-11T14:17:50;34.70;99.90
26621;DHT22;14253;44.840;10.444;2022-08-11T14:20:17;35.10;99.90
26621;DHT22;14253;44.840;10.444;2022-08-11T14:22:44;35.10;99.90
26621;DHT22;14253;44.840;10.444;2022-08-11T14:25:13;35.10;99.90
26621;DHT22;14253;44.840;10.444;2022-08-11T14:27:43;35.10;99.90
26621;DHT22;14253;44.840;10.444;2022-08-11T14:30:12;35.20;99.90
26621;DHT22;14253;44.840;10.444;2022-08-11T14:32:58;35.20;99.90
26621;DHT22;14253;44.840;10.444;2022-08-11T14:35:26;34.90;99.90
26621;DHT22;14253;44.840;10.444;2022-08-11T14:37:53;34.70;99.90
26621;DHT22;14253;44.840;10.444;2022-08-11T14:40:20;35.00;99.90
26621;DHT22;14253;44.840;10.444;2022-08-11T14:43:05;35.00;99.90
26621;DHT22;14253;44.840;10.444;2022-08-11T14:45:51;34.90;99.90
26621;DHT22;14253;44.840;10.444;2022-08-11T14:48:36;34.80;99.90
26621;DHT22;14253;44.840;10.444;2022-08-11T14:51:03;34.70;99.90
26621;DHT22;14253;44.840;10.444;2022-08-11T14:53:30;34.80;99.90
26621;DHT22;14253;44.840;10.444;2022-08-11T14:55:57;35.10;99.90
26621;DHT22;14253;44.840;10.444;2022-08-11T14:58:43;35.00;99.90
26621;DHT22;14253;44.840;10.444;2022-08-11T15:01:09;35.00;99.90
26621;DHT22;14253;44.840;10.444;2022-08-11T15:03:57;35.00;99.90
26621;DHT22;14253;44.840;10.444;2022-08-11T15:06:24;34.80;99.90
26621;DHT22;14253;44.840;10.444;2022-08-11T15:08:53;34.90;99.90
26621;DHT22;14253;44.840;10.444;2022-08-11T15:11:24;35.10;99.90
26621;DHT22;14253;44.840;10.444;2022-08-11T15:14:12;35.00;99.90
26621;DHT22;14253;44.840;10.444;2022-08-11T15:16:42;34.90;99.90
26621;DHT22;14253;44.840;10.444;2022-08-11T15:19:28;35.10;99.90
26621;DHT22;14253;44.840;10.444;2022-08-11T15:21:57;35.30;99.90
26621;DHT22;14253;44.840;10.444;2022-08-11T15:24:46;35.30;99.90
26621;DHT22;14253;44.840;10.444;2022-08-11T15:27:18;35.30;99.90
26621;DHT22;14253;44.840;10.444;2022-08-11T15:30:04;35.20;99.90
26621;DHT22;14253;44.840;10.444;2022-08-11T15:32:50;35.20;99.90
26621;DHT22;14253;44.840;10.444;2022-08-11T15:35:37;35.00;99.90
26621;DHT22;14253;44.840;10.444;2022-08-11T15:38:22;35.30;99.90
26621;DHT22;14253;44.840;10.444;2022-08-11T15:40:50;35.30;99.90
26621;DHT22;14253;44.840;10.444;2022-08-11T15:43:53;35.30;99.90
26621;DHT22;14253;44.840;10.444;2022-08-11T15:46:44;35.80;99.90
26621;DHT22;14253;44.840;10.444;2022-08-11T15:51:54;36.50;99.90
26621;DHT22;14253;44.840;10.444;2022-08-11T15:54:25;36.60;99.90
26621;DHT22;14253;44.840;10.444;2022-08-11T15:56:52;36.70;99.90
26621;DHT22;14253;44.840;10.444;2022-08-11T15:59:24;37.10;99.90
26621;DHT22;14253;44.840;10.444;2022-08-11T16:02:14;37.00;99.90
26621;DHT22;14253;44.840;10.444;2022-08-11T16:05:02;36.80;99.90
26621;DHT22;14253;44.840;10.444;2022-08-11T16:07:32;36.70;99.90
26621;DHT22;14253;44.840;10.444;2022-08-11T16:10:06;36.90;99.90
26621;DHT22;14253;44.840;10.444;2022-08-11T16:12:37;37.30;99.90
26621;DHT22;14253;44.840;10.444;2022-08-11T16:15:06;37.00;99.90
26621;DHT22;14253;44.840;10.444;2022-08-11T16:18:01;37.00;99.90
26621;DHT22;14253;44.840;10.444;2022-08-11T16:20:28;36.80;99.90
26621;DHT22;14253;44.840;10.444;2022-08-11T16:22:58;36.80;99.90
26621;DHT22;14253;44.840;10.444;2022-08-11T16:25:26;36.60;99.90
26621;DHT22;14253;44.840;10.444;2022-08-11T16:27:56;36.80;99.90
26621;DHT22;14253;44.840;10.444;2022-08-11T16:30:34;37.20;99.90
26621;DHT22;14253;44.840;10.444;2022-08-11T16:33:01;37.20;99.90
26621;DHT22;14253;44.840;10.444;2022-08-11T16:35:32;37.20;99.90
26621;DHT22;14253;44.840;10.444;2022-08-11T16:38:19;37.00;99.90
26621;DHT22;14253;44.840;10.444;2022-08-11T16:41:09;36.90;99.90
26621;DHT22;14253;44.840;10.444;2022-08-11T16:43:42;36.60;99.90
26621;DHT22;14253;44.840;10.444;2022-08-11T16:46:28;36.50;99.90
26621;DHT22;14253;44.840;10.444;2022-08-11T16:49:30;36.50;99.90
26621;DHT22;14253;44.840;10.444;2022-08-11T16:51:57;36.30;99.90
26621;DHT22;14253;44.840;10.444;2022-08-11T16:54:25;36.00;99.90
26621;DHT22;14253;44.840;10.444;2022-08-11T16:56:52;35.90;99.90
26621;DHT22;14253;44.840;10.444;2022-08-11T16:59:35;35.90;99.90
26621;DHT22;14253;44.840;10.444;2022-08-11T17:02:07;35.80;99.90
26621;DHT22;14253;44.840;10.444;2022-08-11T17:04:42;35.70;99.90
26621;DHT22;14253;44.840;10.444;2022-08-11T17:07:30;35.10;99.90
26621;DHT22;14253;44.840;10.444;2022-08-11T17:10:21;34.60;99.90
26621;DHT22;14253;44.840;10.444;2022-08-11T17:13:09;34.00;99.90
26621;DHT22;14253;44.840;10.444;2022-08-11T17:15:43;33.40;99.90
26621;DHT22;14253;44.840;10.444;2022-08-11T17:18:29;32.90;99.90
26621;DHT22;14253;44.840;10.444;2022-08-11T17:21:06;32.50;99.90
26621;DHT22;14253;44.840;10.444;2022-08-11T17:23:39;32.20;99.90
26621;DHT22;14253;44.840;10.444;2022-08-11T17:26:36;31.70;99.90
26621;DHT22;14253;44.840;10.444;2022-08-11T17:29:26;31.50;99.90
26621;DHT22;14253;44.840;10.444;2022-08-11T17:31:54;31.20;99.90
26621;DHT22;14253;44.840;10.444;2022-08-11T17:34:42;31.00;99.90
26621;DHT22;14253;44.840;10.444;2022-08-11T17:37:28;30.80;99.90
26621;DHT22;14253;44.840;10.444;2022-08-11T17:40:00;30.70;99.90
26621;DHT22;14253;44.840;10.444;2022-08-11T17:42:29;30.50;99.90
26621;DHT22;14253;44.840;10.444;2022-08-11T17:45:17;30.40;99.90
26621;DHT22;14253;44.840;10.444;2022-08-11T17:48:03;30.40;99.90
26621;DHT22;14253;44.840;10.444;2022-08-11T17:50:51;30.10;99.90
26621;DHT22;14253;44.840;10.444;2022-08-11T17:53:18;30.00;99.90
26621;DHT22;14253;44.840;10.444;2022-08-11T17:56:05;29.90;99.90
26621;DHT22;14253;44.840;10.444;2022-08-11T17:58:51;29.70;99.90
26621;DHT22;14253;44.840;10.444;2022-08-11T18:01:40;29.60;99.90
26621;DHT22;14253;44.840;10.444;2022-08-11T18:04:09;29.50;99.90
26621;DHT22;14253;44.840;10.444;2022-08-11T18:06:36;29.40;99.90
26621;DHT22;14253;44.840;10.444;2022-08-11T18:09:16;29.20;99.90
26621;DHT22;14253;44.840;10.444;2022-08-11T18:12:05;29.20;99.90
26621;DHT22;14253;44.840;10.444;2022-08-11T18:14:52;29.10;99.90
26621;DHT22;14253;44.840;10.444;2022-08-11T18:17:37;29.00;99.90
26621;DHT22;14253;44.840;10.444;2022-08-11T18:20:22;28.90;99.90
26621;DHT22;14253;44.840;10.444;2022-08-11T18:23:18;28.80;99.90
26621;DHT22;14253;44.840;10.444;2022-08-11T18:26:03;28.60;99.90
26621;DHT22;14253;44.840;10.444;2022-08-11T18:28:53;28.50;99.90
26621;DHT22;14253;44.840;10.444;2022-08-11T18:31:43;28.50;99.90
26621;DHT22;14253;44.840;10.444;2022-08-11T18:34:31;28.30;99.90
26621;DHT22;14253;44.840;10.444;2022-08-11T18:37:22;28.20;99.90
26621;DHT22;14253;44.840;10.444;2022-08-11T18:40:11;28.10;99.90
26621;DHT22;14253;44.840;10.444;2022-08-11T18:43:01;28.10;99.90
26621;DHT22;14253;44.840;10.444;2022-08-11T18:45:48;27.90;99.90
26621;DHT22;14253;44.840;10.444;2022-08-11T18:48:35;27.90;99.90
26621;DHT22;14253;44.840;10.444;2022-08-11T18:51:22;27.80;99.90
26621;DHT22;14253;44.840;10.444;2022-08-11T18:54:10;27.70;99.90
26621;DHT22;14253;44.840;10.444;2022-08-11T18:57:00;27.60;99.90
26621;DHT22;14253;44.840;10.444;2022-08-11T18:59:46;27.60;99.90
26621;DHT22;14253;44.840;10.444;2022-08-11T19:02:34;27.50;99.90
26621;DHT22;14253;44.840;10.444;2022-08-11T19:05:21;27.50;99.90
26621;DHT22;14253;44.840;10.444;2022-08-11T19:08:07;27.40;99.90
26621;DHT22;14253;44.840;10.444;2022-08-11T19:10:53;27.30;99.90
26621;DHT22;14253;44.840;10.444;2022-08-11T19:13:40;27.30;99.90
26621;DHT22;14253;44.840;10.444;2022-08-11T19:16:27;27.20;99.90
26621;DHT22;14253;44.840;10.444;2022-08-11T19:19:14;27.10;99.90
26621;DHT22;14253;44.840;10.444;2022-08-11T19:22:02;27.10;99.90
26621;DHT22;14253;44.840;10.444;2022-08-11T19:24:47;27.00;99.90
26621;DHT22;14253;44.840;10.444;2022-08-11T19:27:34;27.00;99.90
26621;DHT22;14253;44.840;10.444;2022-08-11T19:30:19;26.90;99.90
26621;DHT22;14253;44.840;10.444;2022-08-11T19:33:04;26.80;99.90